sensor_id;sensor_type;location;lat;lon;timestamp;pressure;altitude;pressure_sealevel;temperature;humidity
9774;BME280;4926;42.670;23.316;2024-01-30T00:01:01;96425.97;;;-0.43;57.74
9774;BME280;4926;42.670;23.316;2024-01-30T00:03:26;96442.72;;;-0.39;58.53
9774;BME280;4926;42.670;23.316;2024-01-30T00:05:52;96436.06;;;-0.28;57.61
9774;BME280;4926;42.670;23.316;2024-01-30T00:08:17;96439.03;;;-0.33;57.87
9774;BME280;4926;42.670;23.316;2024-01-30T00:10:43;96442.84;;;-0.29;58.06
9774;BME280;4926;42.670;23.316;2024-01-30T00:13:08;96445.97;;;-0.32;57.53
9774;BME280;4926;42.670;23.316;2024-01-30T00:15:34;96447.47;;;-0.39;57.67
9774;BME280;4926;42.670;23.316;2024-01-30T00:18:00;96442.72;;;-0.39;57.64
9774;BME280;4926;42.670;23.316;2024-01-30T00:20:26;96446.53;;;-0.34;57.88
9774;BME280;4926;42.670;23.316;2024-01-30T00:22:51;96447.81;;;-0.35;57.92
9774;BME280;4926;42.670;23.316;2024-01-30T00:25:26;96443.34;;;-0.48;57.95
9774;BME280;4926;42.670;23.316;2024-01-30T00:27:52;96447.47;;;-0.39;58.43
9774;BME280;4926;42.670;23.316;2024-01-30T00:30:17;96443.34;;;-0.48;58.07
9774;BME280;4926;42.670;23.316;2024-01-30T00:32:43;96447.47;;;-0.39;58.43
9774;BME280;4926;42.670;23.316;2024-01-30T00:35:08;96445.28;;;-0.41;58.41
9774;BME280;4926;42.670;23.316;2024-01-30T00:37:35;96449.91;;;-0.43;57.78
9774;BME280;4926;42.670;23.316;2024-01-30T00:40:01;96448.16;;;-0.31;58.28
9774;BME280;4926;42.670;23.316;2024-01-30T00:42:26;96443.06;;;-0.34;56.74
9774;BME280;4926;42.670;23.316;2024-01-30T00:44:52;96441.53;;;-0.28;58.24
9774;BME280;4926;42.670;23.316;2024-01-30T00:47:17;96440.59;;;-0.48;57.84
9774;BME280;4926;42.670;23.316;2024-01-30T00:49:43;96439.06;;;-0.66;58.86
9774;BME280;4926;42.670;23.316;2024-01-30T00:52:11;96444.53;;;-0.66;58.67
9774;BME280;4926;42.670;23.316;2024-01-30T00:54:36;96445.16;;;-0.75;58.69
9774;BME280;4926;42.670;23.316;2024-01-30T00:57:02;96438.34;;;-0.66;58.89
9774;BME280;4926;42.670;23.316;2024-01-30T00:59:28;96444.72;;;-0.64;58.68
9774;BME280;4926;42.670;23.316;2024-01-30T01:01:53;96444.16;;;-0.62;58.88
9774;BME280;4926;42.670;23.316;2024-01-30T01:04:19;96437.16;;;-0.56;58.29
9774;BME280;4926;42.670;23.316;2024-01-30T01:06:46;96443.78;;;-0.59;58.95
9774;BME280;4926;42.670;23.316;2024-01-30T01:09:12;96441.44;;;-0.70;59.07
9774;BME280;4926;42.670;23.316;2024-01-30T01:11:37;96437.75;;;-0.57;58.70
9774;BME280;4926;42.670;23.316;2024-01-30T01:14:04;96439.50;;;-0.45;58.62
9774;BME280;4926;42.670;23.316;2024-01-30T01:16:29;96436.88;;;-0.35;58.16
9774;BME280;4926;42.670;23.316;2024-01-30T01:18:55;96437.75;;;-0.57;57.77
9774;BME280;4926;42.670;23.316;2024-01-30T01:21:20;96438.50;;;-0.64;57.86
9774;BME280;4926;42.670;23.316;2024-01-30T01:23:46;96444.03;;;-0.72;58.15
9774;BME280;4926;42.670;23.316;2024-01-30T01:26:11;96444.53;;;-0.66;58.61
9774;BME280;4926;42.670;23.316;2024-01-30T01:28:40;96438.88;;;-0.68;58.27
9774;BME280;4926;42.670;23.316;2024-01-30T01:31:06;96438.56;;;-0.72;58.03
9774;BME280;4926;42.670;23.316;2024-01-30T01:33:34;96439.28;;;-0.72;57.90
9774;BME280;4926;42.670;23.316;2024-01-30T01:36:04;96441.75;;;-0.91;58.49
9774;BME280;4926;42.670;23.316;2024-01-30T01:38:30;96439.31;;;-0.79;58.04
9774;BME280;4926;42.670;23.316;2024-01-30T01:40:55;96440.34;;;-0.67;58.17
9774;BME280;4926;42.670;23.316;2024-01-30T01:43:23;96442.88;;;-0.61;58.09
9774;BME280;4926;42.670;23.316;2024-01-30T01:45:49;96438.81;;;-0.53;57.32
9774;BME280;4926;42.670;23.316;2024-01-30T01:48:15;96438.59;;;-0.47;56.80
9774;BME280;4926;42.670;23.316;2024-01-30T01:50:42;96437.50;;;-0.52;57.27
9774;BME280;4926;42.670;23.316;2024-01-30T01:53:08;96442.41;;;-0.43;57.96
9774;BME280;4926;42.670;23.316;2024-01-30T01:55:34;96439.22;;;-0.56;57.15
9774;BME280;4926;42.670;23.316;2024-01-30T01:58:00;96442.28;;;-0.52;58.05
9774;BME280;4926;42.670;23.316;2024-01-30T02:00:26;96443.22;;;-0.57;57.47
9774;BME280;4926;42.670;23.316;2024-01-30T02:02:54;96450.53;;;-0.60;58.30
9774;BME280;4926;42.670;23.316;2024-01-30T02:05:20;96449.59;;;-0.55;57.06
9774;BME280;4926;42.670;23.316;2024-01-30T02:07:46;96447.16;;;-0.43;57.92
9774;BME280;4926;42.670;23.316;2024-01-30T02:10:12;96452.84;;;-0.49;57.46
9774;BME280;4926;42.670;23.316;2024-01-30T02:12:38;96449.56;;;-0.47;57.19
9774;BME280;4926;42.670;23.316;2024-01-30T02:15:04;96456.66;;;-0.44;56.99
9774;BME280;4926;42.670;23.316;2024-01-30T02:17:30;96453.59;;;-0.56;57.59
9774;BME280;4926;42.670;23.316;2024-01-30T02:19:56;96447.50;;;-0.72;57.44
9774;BME280;4926;42.670;23.316;2024-01-30T02:22:22;96454.66;;;-0.84;57.86
9774;BME280;4926;42.670;23.316;2024-01-30T02:24:48;96447.34;;;-0.81;58.63
9774;BME280;4926;42.670;23.316;2024-01-30T02:27:14;96443.03;;;-0.92;58.09
9774;BME280;4926;42.670;23.316;2024-01-30T02:29:39;96447.28;;;-0.98;57.92
9774;BME280;4926;42.670;23.316;2024-01-30T02:32:05;96432.50;;;-1.03;58.54
9774;BME280;4926;42.670;23.316;2024-01-30T02:34:31;96439.50;;;-1.17;58.82
9774;BME280;4926;42.670;23.316;2024-01-30T02:36:57;96446.81;;;-1.20;59.23
9774;BME280;4926;42.670;23.316;2024-01-30T02:39:22;96434.34;;;-1.05;58.77
9774;BME280;4926;42.670;23.316;2024-01-30T02:41:48;96447.97;;;-0.90;58.40
9774;BME280;4926;42.670;23.316;2024-01-30T02:44:13;96441.59;;;-0.93;57.57
9774;BME280;4926;42.670;23.316;2024-01-30T02:46:38;96441.56;;;-0.85;57.85
9774;BME280;4926;42.670;23.316;2024-01-30T02:49:04;96436.84;;;-0.92;57.50
9774;BME280;4926;42.670;23.316;2024-01-30T02:51:29;96436.91;;;-1.08;57.94
9774;BME280;4926;42.670;23.316;2024-01-30T02:53:55;96445.13;;;-1.08;58.07
9774;BME280;4926;42.670;23.316;2024-01-30T02:56:20;96454.03;;;-0.99;58.17
9774;BME280;4926;42.670;23.316;2024-01-30T02:58:46;96446.75;;;-1.04;58.04
9774;BME280;4926;42.670;23.316;2024-01-30T03:01:11;96443.41;;;-0.95;57.77
9774;BME280;4926;42.670;23.316;2024-01-30T03:03:37;96448.34;;;-0.94;57.52
9774;BME280;4926;42.670;23.316;2024-01-30T03:06:02;96443.53;;;-0.78;57.46
9774;BME280;4926;42.670;23.316;2024-01-30T03:08:28;96439.16;;;-0.81;57.51
9774;BME280;4926;42.670;23.316;2024-01-30T03:10:54;96434.41;;;-0.81;56.74
9774;BME280;4926;42.670;23.316;2024-01-30T03:13:19;96439.41;;;-0.94;57.15
9774;BME280;4926;42.670;23.316;2024-01-30T03:15:45;96440.66;;;-0.88;57.27
9774;BME280;4926;42.670;23.316;2024-01-30T03:18:10;96436.47;;;-0.96;57.07
9774;BME280;4926;42.670;23.316;2024-01-30T03:20:36;96439.75;;;-0.90;57.23
9774;BME280;4926;42.670;23.316;2024-01-30T03:23:01;96433.16;;;-0.87;56.99
9774;BME280;4926;42.670;23.316;2024-01-30T03:25:27;96442.31;;;-0.92;56.96
9774;BME280;4926;42.670;23.316;2024-01-30T03:27:52;96437.13;;;-0.73;56.81
9774;BME280;4926;42.670;23.316;2024-01-30T03:30:17;96441.50;;;-0.78;57.59
9774;BME280;4926;42.670;23.316;2024-01-30T03:32:43;96434.41;;;-0.81;57.30
9774;BME280;4926;42.670;23.316;2024-01-30T03:35:09;96436.38;;;-0.74;56.04
9774;BME280;4926;42.670;23.316;2024-01-30T03:37:35;96435.56;;;-0.59;56.51
9774;BME280;4926;42.670;23.316;2024-01-30T03:40:01;96425.72;;;-0.62;56.36
9774;BME280;4926;42.670;23.316;2024-01-30T03:42:27;96424.94;;;-0.55;56.77
9774;BME280;4926;42.670;23.316;2024-01-30T03:44:53;96421.88;;;-0.59;55.73
9774;BME280;4926;42.670;23.316;2024-01-30T03:47:20;96427.63;;;-0.72;56.91
9774;BME280;4926;42.670;23.316;2024-01-30T03:49:46;96429.94;;;-0.68;55.99
9774;BME280;4926;42.670;23.316;2024-01-30T03:52:12;96426.16;;;-0.73;56.37
9774;BME280;4926;42.670;23.316;2024-01-30T03:54:37;96423.06;;;-0.77;56.79
9774;BME280;4926;42.670;23.316;2024-01-30T03:57:03;96428.75;;;-0.83;54.82
9774;BME280;4926;42.670;23.316;2024-01-30T03:59:29;96427.28;;;-0.84;54.39
9774;BME280;4926;42.670;23.316;2024-01-30T04:01:54;96418.34;;;-0.84;54.67
9774;BME280;4926;42.670;23.316;2024-01-30T04:04:20;96421.09;;;-0.84;54.68
9774;BME280;4926;42.670;23.316;2024-01-30T04:06:46;96420.38;;;-0.85;54.99
9774;BME280;4926;42.670;23.316;2024-01-30T04:09:14;96415.94;;;-0.73;54.92
9774;BME280;4926;42.670;23.316;2024-01-30T04:11:40;96425.06;;;-0.78;54.22
9774;BME280;4926;42.670;23.316;2024-01-30T04:14:05;96410.72;;;-0.86;54.94
9774;BME280;4926;42.670;23.316;2024-01-30T04:16:31;96417.50;;;-0.94;55.31
9774;BME280;4926;42.670;23.316;2024-01-30T04:18:56;96417.25;;;-0.81;55.18
9774;BME280;4926;42.670;23.316;2024-01-30T04:21:22;96414.28;;;-0.76;55.30
9774;BME280;4926;42.670;23.316;2024-01-30T04:23:48;96427.56;;;-0.64;65.11
9774;BME280;4926;42.670;23.316;2024-01-30T04:26:14;96417.72;;;-0.67;55.29
9774;BME280;4926;42.670;23.316;2024-01-30T04:28:44;96422.16;;;-0.47;54.82
9774;BME280;4926;42.670;23.316;2024-01-30T04:31:10;96421.91;;;-0.42;54.80
9774;BME280;4926;42.670;23.316;2024-01-30T04:33:35;96430.47;;;-0.38;54.37
9774;BME280;4926;42.670;23.316;2024-01-30T04:36:01;96434.09;;;-0.10;58.27
9774;BME280;4926;42.670;23.316;2024-01-30T04:38:26;96425.59;;;0.03;53.74
9774;BME280;4926;42.670;23.316;2024-01-30T04:40:52;96429.22;;;0.06;52.18
9774;BME280;4926;42.670;23.316;2024-01-30T04:43:17;96432.03;;;-0.02;52.87
9774;BME280;4926;42.670;23.316;2024-01-30T04:45:44;96422.69;;;0.01;53.15
9774;BME280;4926;42.670;23.316;2024-01-30T04:48:09;96433.44;;;0.07;52.49
9774;BME280;4926;42.670;23.316;2024-01-30T04:50:35;96433.22;;;0.12;52.16
9774;BME280;4926;42.670;23.316;2024-01-30T04:53:01;96439.53;;;-0.03;52.81
9774;BME280;4926;42.670;23.316;2024-01-30T04:55:27;96442.88;;;-0.12;53.47
9774;BME280;4926;42.670;23.316;2024-01-30T04:57:52;96447.81;;;-0.35;54.14
9774;BME280;4926;42.670;23.316;2024-01-30T05:00:18;96448.75;;;-0.40;54.77
9774;BME280;4926;42.670;23.316;2024-01-30T05:02:43;96450.16;;;-0.56;54.03
9774;BME280;4926;42.670;23.316;2024-01-30T05:05:12;96440.16;;;-0.69;53.58
9774;BME280;4926;42.670;23.316;2024-01-30T05:07:40;96453.59;;;-0.56;53.38
9774;BME280;4926;42.670;23.316;2024-01-30T05:10:06;96445.75;;;-0.52;53.41
9774;BME280;4926;42.670;23.316;2024-01-30T05:12:32;96465.25;;;-0.48;53.92
9774;BME280;4926;42.670;23.316;2024-01-30T05:14:57;96453.47;;;-0.58;53.87
9774;BME280;4926;42.670;23.316;2024-01-30T05:17:23;96452.50;;;-0.53;54.78
9774;BME280;4926;42.670;23.316;2024-01-30T05:19:48;96456.78;;;-0.67;55.43
9774;BME280;4926;42.670;23.316;2024-01-30T05:22:14;96452.50;;;-0.28;76.12
9774;BME280;4926;42.670;23.316;2024-01-30T05:24:41;96456.59;;;0.30;57.30
9774;BME280;4926;42.670;23.316;2024-01-30T05:27:07;96458.47;;;0.28;53.68
9774;BME280;4926;42.670;23.316;2024-01-30T05:29:33;96463.09;;;0.60;54.15
9774;BME280;4926;42.670;23.316;2024-01-30T05:31:59;96458.72;;;0.57;66.15
9774;BME280;4926;42.670;23.316;2024-01-30T05:34:24;96460.34;;;0.43;58.06
9774;BME280;4926;42.670;23.316;2024-01-30T05:36:49;96461.78;;;0.44;51.61
9774;BME280;4926;42.670;23.316;2024-01-30T05:39:15;96453.22;;;0.22;52.65
9774;BME280;4926;42.670;23.316;2024-01-30T05:41:40;96457.31;;;0.14;53.30
9774;BME280;4926;42.670;23.316;2024-01-30T05:44:06;96463.09;;;-0.24;53.84
9774;BME280;4926;42.670;23.316;2024-01-30T05:46:33;96460.25;;;-0.34;53.39
9774;BME280;4926;42.670;23.316;2024-01-30T05:48:58;96456.56;;;-0.29;53.97
9774;BME280;4926;42.670;23.316;2024-01-30T05:51:24;96466.28;;;-0.36;54.08
9774;BME280;4926;42.670;23.316;2024-01-30T05:53:49;96460.00;;;-0.53;54.23
9774;BME280;4926;42.670;23.316;2024-01-30T05:56:18;96460.47;;;-0.72;54.52
9774;BME280;4926;42.670;23.316;2024-01-30T05:58:43;96452.56;;;-0.60;54.82
9774;BME280;4926;42.670;23.316;2024-01-30T06:01:09;96455.06;;;-0.55;54.64
9774;BME280;4926;42.670;23.316;2024-01-30T06:03:35;96455.03;;;-0.47;54.47
9774;BME280;4926;42.670;23.316;2024-01-30T06:06:00;96459.31;;;-0.61;54.03
9774;BME280;4926;42.670;23.316;2024-01-30T06:08:26;96462.72;;;-0.53;53.80
9774;BME280;4926;42.670;23.316;2024-01-30T06:10:51;96452.28;;;-0.47;53.47
9774;BME280;4926;42.670;23.316;2024-01-30T06:13:17;96465.16;;;-0.57;54.29
9774;BME280;4926;42.670;23.316;2024-01-30T06:15:43;96453.47;;;-0.58;54.24
9774;BME280;4926;42.670;23.316;2024-01-30T06:18:08;96461.31;;;-0.62;54.76
9774;BME280;4926;42.670;23.316;2024-01-30T06:20:34;96463.78;;;-0.74;54.63
9774;BME280;4926;42.670;23.316;2024-01-30T06:23:00;96464.25;;;-0.60;54.86
9774;BME280;4926;42.670;23.316;2024-01-30T06:25:25;96468.25;;;-0.61;54.44
9774;BME280;4926;42.670;23.316;2024-01-30T06:27:54;96466.28;;;-0.68;54.78
9774;BME280;4926;42.670;23.316;2024-01-30T06:30:19;96471.06;;;-0.76;54.52
9774;BME280;4926;42.670;23.316;2024-01-30T06:32:45;96469.75;;;-0.67;55.20
9774;BME280;4926;42.670;23.316;2024-01-30T06:35:10;96464.63;;;-0.63;54.47
9774;BME280;4926;42.670;23.316;2024-01-30T06:37:36;96469.00;;;-0.60;55.12
9774;BME280;4926;42.670;23.316;2024-01-30T06:40:02;96471.50;;;-0.55;55.63
9774;BME280;4926;42.670;23.316;2024-01-30T06:42:30;96467.09;;;-0.50;54.88
9774;BME280;4926;42.670;23.316;2024-01-30T06:44:55;96470.50;;;-0.42;55.17
9774;BME280;4926;42.670;23.316;2024-01-30T06:47:21;96470.09;;;-0.31;53.96
9774;BME280;4926;42.670;23.316;2024-01-30T06:49:46;96472.59;;;-0.25;54.29
9774;BME280;4926;42.670;23.316;2024-01-30T06:52:12;96471.81;;;-0.18;53.65
9774;BME280;4926;42.670;23.316;2024-01-30T06:54:37;96473.31;;;-0.25;53.46
9774;BME280;4926;42.670;23.316;2024-01-30T06:57:03;96475.84;;;-0.19;53.81
9774;BME280;4926;42.670;23.316;2024-01-30T06:59:39;96482.63;;;-0.20;53.18
9774;BME280;4926;42.670;23.316;2024-01-30T07:02:09;96477.66;;;-0.14;52.69
9774;BME280;4926;42.670;23.316;2024-01-30T07:04:35;96483.81;;;-0.06;53.73
9774;BME280;4926;42.670;23.316;2024-01-30T07:07:03;96477.03;;;-0.05;52.23
9774;BME280;4926;42.670;23.316;2024-01-30T07:09:30;96484.94;;;-0.42;51.77
9774;BME280;4926;42.670;23.316;2024-01-30T07:11:58;96483.34;;;-0.45;51.13
9774;BME280;4926;42.670;23.316;2024-01-30T07:14:25;96478.38;;;-0.71;51.45
9774;BME280;4926;42.670;23.316;2024-01-30T07:16:50;96481.31;;;-0.84;52.37
9774;BME280;4926;42.670;23.316;2024-01-30T07:19:16;96472.59;;;-0.90;53.37
9774;BME280;4926;42.670;23.316;2024-01-30T07:21:41;96477.31;;;-0.83;52.40
9774;BME280;4926;42.670;23.316;2024-01-30T07:24:07;96482.38;;;-0.72;52.85
9774;BME280;4926;42.670;23.316;2024-01-30T07:26:33;96483.41;;;-0.60;51.27
9774;BME280;4926;42.670;23.316;2024-01-30T07:28:58;96490.34;;;-0.59;51.39
9774;BME280;4926;42.670;23.316;2024-01-30T07:31:24;96479.41;;;-0.59;50.37
9774;BME280;4926;42.670;23.316;2024-01-30T07:33:49;96473.66;;;-0.46;49.87
9774;BME280;4926;42.670;23.316;2024-01-30T07:36:15;96474.94;;;-0.22;49.29
9774;BME280;4926;42.670;23.316;2024-01-30T07:38:40;96481.50;;;0.08;48.45
9774;BME280;4926;42.670;23.316;2024-01-30T07:41:06;96481.38;;;0.23;49.49
9774;BME280;4926;42.670;23.316;2024-01-30T07:43:31;96480.13;;;0.58;48.56
9774;BME280;4926;42.670;23.316;2024-01-30T07:46:01;96469.38;;;0.87;47.95
9774;BME280;4926;42.670;23.316;2024-01-30T07:48:28;96478.75;;;1.01;46.32
9774;BME280;4926;42.670;23.316;2024-01-30T07:50:53;96466.50;;;1.29;45.43
9774;BME280;4926;42.670;23.316;2024-01-30T07:53:18;96474.28;;;1.77;44.73
9774;BME280;4926;42.670;23.316;2024-01-30T07:55:46;96467.75;;;2.09;44.29
9774;BME280;4926;42.670;23.316;2024-01-30T07:58:12;96468.56;;;2.58;42.75
9774;BME280;4926;42.670;23.316;2024-01-30T08:00:37;96473.50;;;2.49;41.43
9774;BME280;4926;42.670;23.316;2024-01-30T08:03:04;96467.28;;;2.78;41.35
9774;BME280;4926;42.670;23.316;2024-01-30T08:05:29;96467.84;;;2.67;41.20
9774;BME280;4926;42.670;23.316;2024-01-30T08:07:55;96459.59;;;2.47;42.22
9774;BME280;4926;42.670;23.316;2024-01-30T08:10:20;96462.63;;;2.71;41.69
9774;BME280;4926;42.670;23.316;2024-01-30T08:12:46;96470.19;;;2.80;40.97
9774;BME280;4926;42.670;23.316;2024-01-30T08:15:12;96469.69;;;3.41;40.84
9774;BME280;4926;42.670;23.316;2024-01-30T08:17:38;96465.56;;;4.12;38.43
9774;BME280;4926;42.670;23.316;2024-01-30T08:20:07;96455.75;;;4.51;37.43
9774;BME280;4926;42.670;23.316;2024-01-30T08:22:33;96468.13;;;4.72;36.30
9774;BME280;4926;42.670;23.316;2024-01-30T08:24:59;96472.63;;;5.10;37.14
9774;BME280;4926;42.670;23.316;2024-01-30T08:27:24;96467.84;;;5.22;35.58
9774;BME280;4926;42.670;23.316;2024-01-30T08:29:50;96464.91;;;5.41;34.81
9774;BME280;4926;42.670;23.316;2024-01-30T08:32:16;96476.16;;;5.55;34.75
9774;BME280;4926;42.670;23.316;2024-01-30T08:34:41;96476.59;;;5.51;34.20
9774;BME280;4926;42.670;23.316;2024-01-30T08:37:07;96475.59;;;4.38;35.97
9774;BME280;4926;42.670;23.316;2024-01-30T08:39:32;96477.84;;;3.39;39.22
9774;BME280;4926;42.670;23.316;2024-01-30T08:41:58;96475.81;;;3.40;39.63
9774;BME280;4926;42.670;23.316;2024-01-30T08:44:26;96469.91;;;3.74;38.62
9774;BME280;4926;42.670;23.316;2024-01-30T08:46:52;96483.28;;;4.09;37.41
9774;BME280;4926;42.670;23.316;2024-01-30T08:49:19;96484.25;;;4.75;36.28
9774;BME280;4926;42.670;23.316;2024-01-30T08:51:45;96486.06;;;5.37;34.87
9774;BME280;4926;42.670;23.316;2024-01-30T08:54:11;96482.44;;;5.79;34.12
9774;BME280;4926;42.670;23.316;2024-01-30T08:56:42;96486.34;;;6.32;33.43
9774;BME280;4926;42.670;23.316;2024-01-30T08:59:07;96499.50;;;6.31;33.22
9774;BME280;4926;42.670;23.316;2024-01-30T09:01:33;96489.50;;;6.03;34.69
9774;BME280;4926;42.670;23.316;2024-01-30T09:03:58;96495.13;;;5.93;34.88
9774;BME280;4926;42.670;23.316;2024-01-30T09:06:24;96492.97;;;5.47;34.19
9774;BME280;4926;42.670;23.316;2024-01-30T09:08:51;96491.47;;;5.34;35.81
9774;BME280;4926;42.670;23.316;2024-01-30T09:11:17;96500.72;;;5.27;35.53
9774;BME280;4926;42.670;23.316;2024-01-30T09:13:42;96490.41;;;5.07;35.12
9774;BME280;4926;42.670;23.316;2024-01-30T09:16:08;96491.34;;;4.57;37.92
9774;BME280;4926;42.670;23.316;2024-01-30T09:18:34;96487.63;;;4.64;37.35
9774;BME280;4926;42.670;23.316;2024-01-30T09:20:59;96489.00;;;4.32;37.88
9774;BME280;4926;42.670;23.316;2024-01-30T09:23:26;96482.47;;;3.97;38.93
9774;BME280;4926;42.670;23.316;2024-01-30T09:25:52;96463.09;;;3.66;39.74
9774;BME280;4926;42.670;23.316;2024-01-30T09:28:17;96466.53;;;3.35;40.87
9774;BME280;4926;42.670;23.316;2024-01-30T09:30:43;96474.69;;;2.75;40.76
9774;BME280;4926;42.670;23.316;2024-01-30T09:33:08;96473.72;;;2.25;41.57
9774;BME280;4926;42.670;23.316;2024-01-30T09:35:34;96473.59;;;2.32;42.42
9774;BME280;4926;42.670;23.316;2024-01-30T09:37:59;96460.66;;;2.06;44.00
9774;BME280;4926;42.670;23.316;2024-01-30T09:40:25;96459.09;;;2.22;45.35
9774;BME280;4926;42.670;23.316;2024-01-30T09:42:51;96464.84;;;2.07;45.43
9774;BME280;4926;42.670;23.316;2024-01-30T09:45:21;96470.19;;;2.05;45.20
9774;BME280;4926;42.670;23.316;2024-01-30T09:47:48;96453.78;;;1.88;45.85
9774;BME280;4926;42.670;23.316;2024-01-30T09:50:15;96458.03;;;1.71;47.20
9774;BME280;4926;42.670;23.316;2024-01-30T09:52:42;96458.66;;;1.80;46.73
9774;BME280;4926;42.670;23.316;2024-01-30T09:55:09;96454.91;;;1.85;46.93
9774;BME280;4926;42.670;23.316;2024-01-30T09:57:35;96455.47;;;1.83;46.67
9774;BME280;4926;42.670;23.316;2024-01-30T10:00:02;96458.66;;;1.80;46.26
9774;BME280;4926;42.670;23.316;2024-01-30T10:02:27;96458.16;;;1.64;46.40
9774;BME280;4926;42.670;23.316;2024-01-30T10:04:53;96449.66;;;1.42;47.20
9774;BME280;4926;42.670;23.316;2024-01-30T10:07:19;96442.81;;;1.34;47.60
9774;BME280;4926;42.670;23.316;2024-01-30T10:09:45;96448.16;;;1.32;48.00
9774;BME280;4926;42.670;23.316;2024-01-30T10:12:11;96438.78;;;1.35;48.39
9774;BME280;4926;42.670;23.316;2024-01-30T10:14:40;96439.38;;;1.43;48.17
9774;BME280;4926;42.670;23.316;2024-01-30T10:17:09;96441.91;;;1.58;46.82
9774;BME280;4926;42.670;23.316;2024-01-30T10:19:41;96435.31;;;1.71;46.26
9774;BME280;4926;42.670;23.316;2024-01-30T10:22:07;96448.63;;;1.65;45.87
9774;BME280;4926;42.670;23.316;2024-01-30T10:24:33;96444.13;;;1.69;46.54
9774;BME280;4926;42.670;23.316;2024-01-30T10:26:59;96439.06;;;1.66;46.88
9774;BME280;4926;42.670;23.316;2024-01-30T10:29:24;96442.72;;;1.68;47.45
9774;BME280;4926;42.670;23.316;2024-01-30T10:32:08;96448.50;;;1.72;45.92
9774;BME280;4926;42.670;23.316;2024-01-30T10:34:34;96430.63;;;1.54;46.96
9774;BME280;4926;42.670;23.316;2024-01-30T10:37:08;96441.72;;;1.47;46.38
9774;BME280;4926;42.670;23.316;2024-01-30T10:39:38;96445.81;;;1.28;47.03
9774;BME280;4926;42.670;23.316;2024-01-30T10:42:05;96441.00;;;1.19;48.03
9774;BME280;4926;42.670;23.316;2024-01-30T10:44:47;96446.31;;;1.17;47.55
9774;BME280;4926;42.670;23.316;2024-01-30T10:47:21;96442.97;;;1.09;47.41
9774;BME280;4926;42.670;23.316;2024-01-30T10:49:52;96434.63;;;0.99;47.94
9774;BME280;4926;42.670;23.316;2024-01-30T10:52:18;96437.81;;;0.96;48.24
9774;BME280;4926;42.670;23.316;2024-01-30T10:54:46;96430.97;;;1.14;48.02
9774;BME280;4926;42.670;23.316;2024-01-30T10:57:13;96433.16;;;1.16;48.33
9774;BME280;4926;42.670;23.316;2024-01-30T10:59:41;96417.00;;;1.20;48.30
9774;BME280;4926;42.670;23.316;2024-01-30T11:02:08;96428.91;;;1.05;48.04
9774;BME280;4926;42.670;23.316;2024-01-30T11:04:40;96421.44;;;1.15;47.95
9774;BME280;4926;42.670;23.316;2024-01-30T11:07:18;96409.72;;;1.15;47.55
9774;BME280;4926;42.670;23.316;2024-01-30T11:12:25;96412.59;;;1.07;48.31
9774;BME280;4926;42.670;23.316;2024-01-30T11:15:08;96402.88;;;1.06;48.69
9774;BME280;4926;42.670;23.316;2024-01-30T11:20:30;96404.56;;;1.19;47.90
9774;BME280;4926;42.670;23.316;2024-01-30T11:23:02;96405.22;;;1.10;48.80
9774;BME280;4926;42.670;23.316;2024-01-30T11:25:31;96408.16;;;0.94;49.20
9774;BME280;4926;42.670;23.316;2024-01-30T11:27:57;96409.13;;;1.06;48.15
9774;BME280;4926;42.670;23.316;2024-01-30T11:30:26;96411.09;;;0.96;48.70
9774;BME280;4926;42.670;23.316;2024-01-30T11:33:06;96402.00;;;1.03;48.33
9774;BME280;4926;42.670;23.316;2024-01-30T11:35:34;96401.19;;;1.11;48.85
9774;BME280;4926;42.670;23.316;2024-01-30T11:38:03;96404.34;;;1.34;51.71
9774;BME280;4926;42.670;23.316;2024-01-30T11:40:30;96396.44;;;1.48;48.36
9774;BME280;4926;42.670;23.316;2024-01-30T11:42:56;96404.28;;;1.51;47.96
9774;BME280;4926;42.670;23.316;2024-01-30T11:45:23;96389.63;;;1.39;48.07
9774;BME280;4926;42.670;23.316;2024-01-30T11:47:49;96402.34;;;1.44;46.80
9774;BME280;4926;42.670;23.316;2024-01-30T11:50:15;96404.53;;;1.46;47.79
9774;BME280;4926;42.670;23.316;2024-01-30T11:52:40;96404.50;;;1.72;48.23
9774;BME280;4926;42.670;23.316;2024-01-30T11:55:07;96399.66;;;2.00;46.64
9774;BME280;4926;42.670;23.316;2024-01-30T11:57:33;96401.16;;;2.20;45.48
9774;BME280;4926;42.670;23.316;2024-01-30T12:00:01;96384.81;;;2.32;45.86
9774;BME280;4926;42.670;23.316;2024-01-30T12:02:28;96389.00;;;2.23;46.09
9774;BME280;4926;42.670;23.316;2024-01-30T12:04:54;96380.03;;;2.23;45.07
9774;BME280;4926;42.670;23.316;2024-01-30T12:07:19;96371.63;;;2.21;46.04
9774;BME280;4926;42.670;23.316;2024-01-30T12:09:54;96371.31;;;2.07;45.68
9774;BME280;4926;42.670;23.316;2024-01-30T12:12:23;96361.13;;;1.90;46.48
9774;BME280;4926;42.670;23.316;2024-01-30T12:14:49;96356.47;;;1.73;47.20
9774;BME280;4926;42.670;23.316;2024-01-30T12:17:27;96359.94;;;1.74;46.77
9774;BME280;4926;42.670;23.316;2024-01-30T12:22:40;96342.56;;;1.71;46.98
9774;BME280;4926;42.670;23.316;2024-01-30T12:27:35;96350.53;;;1.67;47.50
9774;BME280;4926;42.670;23.316;2024-01-30T12:30:05;96347.78;;;1.67;47.32
9774;BME280;4926;42.670;23.316;2024-01-30T12:32:30;96342.28;;;1.67;47.85
9774;BME280;4926;42.670;23.316;2024-01-30T12:35:15;96342.81;;;1.56;47.64
9774;BME280;4926;42.670;23.316;2024-01-30T12:37:44;96333.56;;;1.61;47.82
9774;BME280;4926;42.670;23.316;2024-01-30T12:40:19;96328.06;;;1.61;47.35
9774;BME280;4926;42.670;23.316;2024-01-30T12:42:46;96340.25;;;1.68;47.13
9774;BME280;4926;42.670;23.316;2024-01-30T12:45:14;96339.22;;;1.63;48.05
9774;BME280;4926;42.670;23.316;2024-01-30T12:47:48;96336.19;;;1.69;47.31
9774;BME280;4926;42.670;23.316;2024-01-30T12:50:14;96342.13;;;1.75;47.59
9774;BME280;4926;42.670;23.316;2024-01-30T12:52:43;96334.72;;;1.58;47.25
9774;BME280;4926;42.670;23.316;2024-01-30T12:55:08;96332.25;;;1.53;47.96
9774;BME280;4926;42.670;23.316;2024-01-30T12:57:34;96327.31;;;1.51;47.48
9774;BME280;4926;42.670;23.316;2024-01-30T12:59:59;96323.38;;;1.45;48.40
9774;BME280;4926;42.670;23.316;2024-01-30T13:02:25;96322.56;;;1.52;47.69
9774;BME280;4926;42.670;23.316;2024-01-30T13:04:51;96314.41;;;1.44;47.44
9774;BME280;4926;42.670;23.316;2024-01-30T13:07:17;96314.00;;;1.48;47.63
9774;BME280;4926;42.670;23.316;2024-01-30T13:09:43;96319.22;;;1.53;47.63
9774;BME280;4926;42.670;23.316;2024-01-30T13:12:08;96317.88;;;1.45;47.98
9774;BME280;4926;42.670;23.316;2024-01-30T13:14:33;96311.25;;;1.48;47.62
9774;BME280;4926;42.670;23.316;2024-01-30T13:16:59;96308.59;;;1.30;48.31
9774;BME280;4926;42.670;23.316;2024-01-30T13:19:24;96306.41;;;1.29;48.22
9774;BME280;4926;42.670;23.316;2024-01-30T13:21:50;96307.28;;;1.31;49.22